Arcola, Virginia
Current Conditions -  °F | °C
As of 4:52 PM on Sunday 25 Jan 2015 (Local Time) from KIAD Reporting Station
Overcast Overcast  
Wind Chill:   Ceiling: 6000
Heat Index:   Visibility: 10mi
Dew Point: -1°   Wind: 5mph
Humidity: 58%   Direction: 200°SSW
Pressure: 29.82"   Gusts: NA
Location:  38.95°N, 77.53°W
Report Text: KIAD 252152Z 20004KT 10SM BKN060 BKN085 OVC110 07/M01 A2982 RMK AO2 SLP098 T00721006 $
Loading
Personal Weather Stations






























Interactive Weather Map New forecast layout! Learn more

10-Day Weather Forecast

Advertisements
Track Severe Weather on mobile